LSGS Airport Information

Runway Information
Runway 07 Length 0 ft width 0 ft
Elevation 1578 ft Threshold 0 ft Heading 0
Runway 25 Length 0 ft Width 0 ft
Elevation 1581 ft Threshold 0 ft Heading 0
Runway 07L Length 1820 ft width 98 ft
Elevation 1578 ft Threshold 0 ft Heading 73
Runway 25R Length 1820 ft Width 98 ft
Elevation 1581 ft Threshold 328 ft Heading 253
Runway 07R Length 6562 ft width 131 ft
Elevation 1580 ft Threshold 164 ft Heading 73
Runway 25L Length 6562 ft Width 131 ft
Elevation 1585 ft Threshold 164 ft Heading 253
Airport Frequencies
Type A/G Name SWISS MILI Frequency 134.275 MHZ
Type APP Name RADAR Frequency 126.825 MHZ
Type GND Name GND Frequency 121.7 MHZ
Type INFO Name INFO Frequency 122.35 MHZ
Type TWR Name TWR Frequency 118.275 MHZ
Airport Navaids
Type VOR-DME Name Montana Frequency 115850 KHZ
Type VOR-DME Name Sion Frequency 112150 KHZ
Airport Weather Information & NOTAM
ADDS - METARS form results

(0226 UTC 05 December 2021)
Data provider http://aviationweather.gov/metar/data/
 
METAR text: LSGS 050220Z AUTO VRB01KT 9999 NCD 02/M00 Q1006
Conditions at: LSGS (SION (MIL/CIV/AU, CH) observed 0220 UTC 05 December 2021
Temperature: 2.0°C (36°F)
Dewpoint: 0.0°C (32°F) [RH = 87%]
Pressure (altimeter): 29.70 inches Hg (1006.0 mb)
Winds: variable direction winds at 1 MPH (1 knots; 0.5 m/s)
Visibility: 6 or more miles (10+ km)
Ceiling: at least 12,000 feet AGL
Clouds: sky clear below 12,000 feet AGL
Weather: no significant weather observed at this time

METAR text: LSGS 050150Z AUTO VRB02KT 9999 FEW080 03/00 Q1006
Conditions at: LSGS (SION (MIL/CIV/AU, CH) observed 0150 UTC 05 December 2021
Temperature: 3.0°C (37°F)
Dewpoint: 0.0°C (32°F) [RH = 81%]
Pressure (altimeter): 29.70 inches Hg (1006.0 mb)
Winds: variable direction winds at 2 MPH (2 knots; 1.0 m/s)
Visibility: 6 or more miles (10+ km)
Ceiling: at least 12,000 feet AGL
Clouds: few clouds at 8000 feet AGL
Weather: no significant weather observed at this time

Forecast for: AMD
Text: TAF AMD LSGS 041850Z 0418/0424 VRB02KT 7000 -RA FEW005 SCT020 OVC060
Forecast period: 1800 UTC 04 December 2021 to 0000 UTC 05 December 2021
Forecast type: FROM: standard forecast or significant change
Winds: variable direction winds at 2 MPH (2 knots; 1.0 m/s)
Visibility: 4 miles (7 km)
Ceiling: 6000 feet AGL
Clouds: few clouds at 500 feet AGL
scattered clouds at 2000 feet AGL
overcast cloud deck at 6000 feet AGL
Weather: -RA  (light rain)
Text: TEMPO 0418/0422 1200 -SHSN BKN010
Forecast period: 1800 to 2200 UTC 04 December 2021
Forecast type: TEMPORARY: The following changes expected for less than half the time period
Visibility: 0.75 miles (1.21 km)
Ceiling: 1000 feet AGL
Clouds: broken clouds at 1000 feet AGL
Weather: -SHSN  (light snow showers)